Time;durP1;ratioP1;P1;durP2;ratioP2;P2;SDS_P1;SDS_P2;PMS_P1;PMS_P2;Temp;Humidity;BMP_temperature;BMP_pressure;BME280_temperature;BME280_humidity;BME280_pressure;Samples;Min_cycle;Max_cycle;Signal;HPM_P1;HPM_P2
2021/12/03 00:01:05;;;;;;;66.82;29.73;;;;;;;3.01;74.63;98975.88;3095627;28;20069;-66
2021/12/03 00:02:36;;;;;;;67.97;30.40;;;;;;;3.00;74.45;98981.91;3091722;28;20425;-66
2021/12/03 00:04:08;;;;;;;72.18;32.15;;;;;;;2.98;74.53;98979.38;3094523;28;20077;-66
2021/12/03 00:05:40;;;;;;;67.80;30.60;;;;;;;2.97;74.45;98972.53;3094209;28;20046;-66
2021/12/03 00:07:12;;;;;;;66.97;30.38;;;;;;;2.89;74.46;98975.31;3091593;28;20586;-66
2021/12/03 00:08:45;;;;;;;68.43;28.90;;;;;;;2.89;74.58;98977.88;3095900;28;20050;-66
2021/12/03 00:10:21;;;;;;;71.38;28.90;;;;;;;2.87;74.51;98961.69;3094538;28;20050;-66
2021/12/03 00:11:53;;;;;;;71.10;28.40;;;;;;;2.97;74.49;98988.81;3092767;28;20052;-66
2021/12/03 00:13:29;;;;;;;61.80;30.13;;;;;;;3.01;74.48;99001.59;3095817;28;20050;-65
2021/12/03 00:15:01;;;;;;;64.60;29.85;;;;;;;2.97;74.43;98990.53;3094146;28;20061;-65
2021/12/03 00:16:33;;;;;;;70.68;29.77;;;;;;;2.96;74.46;98974.28;3095930;28;20050;-65
2021/12/03 00:18:05;;;;;;;68.43;30.60;;;;;;;2.96;74.49;98982.00;3092697;28;20050;-65
2021/12/03 00:19:37;;;;;;;72.63;32.33;;;;;;;2.92;74.42;98982.09;3095923;28;20054;-65
2021/12/03 00:21:11;;;;;;;76.47;32.03;;;;;;;2.89;74.49;98990.75;3095351;28;20101;-65
2021/12/03 00:22:44;;;;;;;72.70;30.85;;;;;;;2.89;74.56;98987.34;3095022;28;20072;-65
2021/12/03 00:24:16;;;;;;;70.00;31.10;;;;;;;2.85;74.68;98989.16;3091450;28;20511;-65
2021/12/03 00:25:48;;;;;;;71.25;30.95;;;;;;;2.84;74.84;98995.19;3095030;28;20054;-65
2021/12/03 00:27:19;;;;;;;76.57;32.45;;;;;;;2.77;74.99;98985.94;3095136;28;20603;-65
2021/12/03 00:28:53;;;;;;;72.20;30.85;;;;;;;2.71;75.35;99002.34;3095436;28;20050;-65
2021/12/03 00:30:26;;;;;;;74.47;32.70;;;;;;;2.66;75.42;99000.78;3094158;28;20050;-66
2021/12/03 00:31:58;;;;;;;65.28;31.15;;;;;;;2.64;75.44;98998.28;3092488;28;20038;-67
2021/12/03 00:33:31;;;;;;;73.40;30.70;;;;;;;2.62;75.33;98988.91;3095400;28;20424;-66
2021/12/03 00:35:05;;;;;;;81.13;31.60;;;;;;;2.59;75.17;98982.13;3093805;28;20054;-66
2021/12/03 00:36:37;;;;;;;77.13;30.17;;;;;;;2.61;75.31;98993.22;3095296;28;20452;-66
2021/12/03 00:38:09;;;;;;;79.63;30.40;;;;;;;2.58;75.62;99001.00;3095015;28;20592;-66
2021/12/03 00:39:40;;;;;;;68.22;30.45;;;;;;;2.55;75.47;98997.69;3092811;28;20061;-66
2021/12/03 00:41:16;;;;;;;64.43;29.48;;;;;;;2.58;75.39;98998.44;3089574;28;20050;-66
2021/12/03 00:42:48;;;;;;;71.38;30.50;;;;;;;2.57;75.40;98993.31;3094558;28;20065;-66
2021/12/03 00:44:24;;;;;;;69.78;30.02;;;;;;;2.58;75.38;98995.03;3091337;28;20062;-66
2021/12/03 00:46:04;;;;;;;68.78;29.20;;;;;;;2.55;75.42;98995.09;3093978;28;20046;-66
2021/12/03 00:47:36;;;;;;;67.72;29.15;;;;;;;2.52;75.46;98990.03;3093897;28;20129;-66
2021/12/03 00:49:08;;;;;;;73.95;31.15;;;;;;;2.53;75.50;98991.72;3095793;28;20465;-66
2021/12/03 00:50:40;;;;;;;72.32;31.02;;;;;;;2.51;75.48;99004.59;3094294;28;20050;-66
2021/12/03 00:52:12;;;;;;;71.10;29.42;;;;;;;2.50;75.61;99008.91;3090052;28;20452;-66
2021/12/03 00:53:44;;;;;;;73.07;31.05;;;;;;;2.49;75.59;98996.09;3094551;28;20057;-67
2021/12/03 00:55:18;;;;;;;67.25;30.17;;;;;;;2.50;75.43;99023.47;3093654;28;20503;-66
2021/12/03 00:56:50;;;;;;;73.95;30.30;;;;;;;2.29;75.47;98994.03;3090279;28;20184;-65
2021/12/03 00:58:22;;;;;;;65.20;29.08;;;;;;;2.46;75.87;99021.88;3093436;28;20057;-65
2021/12/03 00:59:54;;;;;;;73.75;29.65;;;;;;;2.48;75.63;99038.94;3090980;28;20133;-65
2021/12/03 01:01:26;;;;;;;75.55;30.73;;;;;;;2.47;75.78;99010.69;3093682;28;20065;-65
2021/12/03 01:03:00;;;;;;;74.20;30.50;;;;;;;2.46;75.77;99006.47;3093585;28;20105;-66
2021/12/03 01:04:32;;;;;;;62.53;29.33;;;;;;;2.45;75.82;99012.47;3088377;28;20054;-65
2021/12/03 01:06:04;;;;;;;66.07;28.88;;;;;;;2.44;75.83;99016.75;3094558;28;20046;-66
2021/12/03 01:07:36;;;;;;;78.35;30.70;;;;;;;2.44;75.89;98998.78;3094578;28;20135;-65
2021/12/03 01:09:08;;;;;;;64.55;30.17;;;;;;;2.24;75.98;98976.13;3089586;28;20051;-65
2021/12/03 01:10:41;;;;;;;68.22;30.15;;;;;;;2.40;75.89;99011.75;3093477;28;20101;-66
2021/12/03 01:12:13;;;;;;;68.65;31.38;;;;;;;2.29;75.79;98983.75;3090347;28;20050;-66
2021/12/03 01:13:46;;;;;;;65.60;29.30;;;;;;;2.38;75.79;99003.22;3094354;28;20046;-66
2021/12/03 01:15:22;;;;;;;71.57;28.88;;;;;;;2.34;75.63;98987.06;3094227;28;20046;-65
2021/12/03 01:16:55;;;;;;;77.53;33.75;;;;;;;2.32;75.70;98983.66;3088909;28;20054;-65
2021/12/03 01:18:26;;;;;;;68.30;28.98;;;;;;;2.29;75.60;98981.16;3091020;28;20449;-65
2021/12/03 01:19:59;;;;;;;67.10;29.20;;;;;;;2.29;75.38;98983.75;3094057;28;20053;-65
2021/12/03 01:21:32;;;;;;;69.55;29.13;;;;;;;2.24;75.24;98985.56;3090252;28;20503;-66
2021/12/03 01:23:05;;;;;;;72.88;30.65;;;;;;;2.22;75.22;98979.66;3094391;28;20140;-65
2021/12/03 01:24:36;;;;;;;61.88;27.90;;;;;;;2.18;75.18;98962.59;3088728;28;20135;-65
2021/12/03 01:26:09;;;;;;;75.55;28.55;;;;;;;2.16;75.15;98964.34;3094309;28;20128;-65
2021/12/03 01:27:41;;;;;;;63.72;28.15;;;;;;;2.11;75.21;98963.66;3094502;28;20042;-65
2021/12/03 01:29:13;;;;;;;78.57;31.73;;;;;;;2.12;75.35;98957.63;3088651;28;20471;-65
2021/12/03 01:30:46;;;;;;;75.63;29.58;;;;;;;2.09;75.22;98944.84;3093906;28;20112;-65
2021/12/03 01:32:18;;;;;;;;;;;;;;;1.91;75.39;98946.13;3093920;28;20737;-65
2021/12/03 01:33:50;;;;;;;68.30;27.45;;;;;;;1.96;75.52;98940.03;3090411;28;19934;-66
2021/12/03 01:35:21;;;;;;;61.42;28.00;;;;;;;1.99;75.27;98934.81;3094388;28;20117;-65
2021/12/03 01:36:53;;;;;;;72.43;30.75;;;;;;;2.02;75.35;98962.97;3093691;28;20508;-67
2021/12/03 01:38:25;;;;;;;82.57;33.33;;;;;;;2.03;75.50;98964.66;3094803;28;20124;-67
2021/12/03 01:39:57;;;;;;;70.82;30.88;;;;;;;2.04;75.30;98974.06;3093136;28;20046;-67
2021/12/03 01:41:32;;;;;;;68.68;28.15;;;;;;;2.03;75.33;98966.38;3093143;28;20153;-67
2021/12/03 01:43:05;;;;;;;74.85;28.70;;;;;;;2.02;75.49;98970.69;3093732;28;20073;-66
2021/12/03 01:44:37;;;;;;;64.22;27.30;;;;;;;2.02;75.31;98974.97;3091497;28;20058;-66
2021/12/03 01:46:12;;;;;;;66.30;31.20;;;;;;;2.04;75.53;98979.22;3095618;28;20112;-66
2021/12/03 01:47:45;;;;;;;69.43;29.73;;;;;;;2.05;75.50;98972.34;3092035;28;20148;-65
2021/12/03 01:49:17;;;;;;;58.83;27.83;;;;;;;2.04;75.58;98971.50;3094176;28;20058;-66
2021/12/03 01:50:49;;;;;;;63.80;28.95;;;;;;;2.08;75.67;98958.59;3093687;28;20503;-66
2021/12/03 01:52:21;;;;;;;64.10;28.13;;;;;;;2.04;75.67;98953.53;3092095;28;20490;-66
2021/12/03 01:53:53;;;;;;;65.05;28.98;;;;;;;2.04;75.72;98974.06;3093243;28;20046;-66
2021/12/03 01:55:25;;;;;;;61.58;28.83;;;;;;;2.04;75.98;98961.22;3093380;28;20129;-66
2021/12/03 01:56:57;;;;;;;70.47;29.13;;;;;;;2.04;75.67;98950.97;3089501;28;20074;-65
2021/12/03 01:58:29;;;;;;;79.45;32.97;;;;;;;2.08;75.63;98956.03;3094205;28;20054;-66
2021/12/03 02:00:02;;;;;;;79.85;33.50;;;;;;;2.08;75.76;98956.84;3093805;28;20498;-65
2021/12/03 02:01:35;;;;;;;70.35;29.60;;;;;;;1.99;75.70;98931.41;3089498;28;20121;-65
2021/12/03 02:03:09;;;;;;;68.82;29.65;;;;;;;2.10;75.88;98936.25;3094352;28;20451;-65
2021/12/03 02:04:41;;;;;;;63.53;29.10;;;;;;;2.06;75.90;98927.78;3091108;28;20051;-65
2021/12/03 02:06:14;;;;;;;64.50;28.80;;;;;;;2.05;75.91;98921.81;3094385;28;20594;-65
2021/12/03 02:07:46;;;;;;;67.45;28.63;;;;;;;2.06;75.97;98922.66;3093332;28;20054;-66
2021/12/03 02:09:18;;;;;;;62.17;27.70;;;;;;;2.04;75.84;98917.56;3094564;28;20053;-64
2021/12/03 02:10:51;;;;;;;64.57;26.73;;;;;;;2.09;75.85;98916.59;3094369;28;20050;-64
2021/12/03 02:12:23;;;;;;;65.47;28.17;;;;;;;2.05;76.07;98915.84;3094060;28;20124;-64
2021/12/03 02:13:55;;;;;;;71.93;28.48;;;;;;;2.02;76.26;98918.50;3091162;28;20046;-64
2021/12/03 02:15:28;;;;;;;63.72;28.08;;;;;;;1.97;76.37;98917.75;3093606;28;20058;-64
2021/12/03 02:17:01;;;;;;;60.90;26.10;;;;;;;1.80;76.45;98910.44;3088458;28;20054;-65
2021/12/03 02:18:33;;;;;;;56.63;26.60;;;;;;;1.99;76.26;98944.25;3094695;28;20050;-65
2021/12/03 02:20:08;;;;;;;61.53;27.02;;;;;;;2.04;76.42;98934.69;3092719;28;20046;-65
2021/12/03 02:21:41;;;;;;;62.20;27.52;;;;;;;2.08;76.38;98923.47;3089913;28;20050;-65
2021/12/03 02:23:14;;;;;;;58.40;26.35;;;;;;;2.13;76.20;98920.78;3093777;28;20077;-65
2021/12/03 02:24:46;;;;;;;59.17;25.95;;;;;;;2.17;76.14;98928.38;3093990;28;20058;-65
2021/12/03 02:26:18;;;;;;;63.42;26.75;;;;;;;2.23;76.06;98948.78;3090920;28;20073;-65
2021/12/03 02:27:52;;;;;;;53.35;24.55;;;;;;;2.28;76.07;98948.66;3093603;28;20049;-65
2021/12/03 02:29:24;;;;;;;58.13;26.17;;;;;;;2.30;76.17;98936.59;3090557;28;20058;-65
2021/12/03 02:30:56;;;;;;;66.05;26.88;;;;;;;2.33;76.14;98938.25;3092530;28;20042;-66
2021/12/03 02:32:28;;;;;;;67.47;29.13;;;;;;;2.37;75.86;98945.84;3094038;28;20054;-65
2021/12/03 02:34:00;;;;;;;58.08;26.60;;;;;;;2.40;76.02;98935.50;3094278;28;20210;-66
2021/12/03 02:35:32;;;;;;;59.97;27.58;;;;;;;2.43;75.92;98934.59;3092667;28;20046;-65
2021/12/03 02:37:06;;;;;;;63.95;26.92;;;;;;;2.47;75.65;98938.75;3089253;28;20509;-65
2021/12/03 02:38:38;;;;;;;66.40;28.65;;;;;;;2.47;75.77;98946.47;3093049;28;20089;-65
2021/12/03 02:40:11;;;;;;;68.47;28.15;;;;;;;2.39;75.75;98938.94;3093388;28;20050;-65
2021/12/03 02:41:43;;;;;;;62.35;29.25;;;;;;;2.47;75.67;98946.47;3089977;28;20046;-65
2021/12/03 02:43:15;;;;;;;63.72;27.40;;;;;;;2.50;75.68;98931.78;3093519;28;20177;-65
2021/12/03 02:44:47;;;;;;;63.28;28.90;;;;;;;2.53;75.77;98928.31;3090878;28;20057;-65
2021/12/03 02:46:19;;;;;;;67.18;27.80;;;;;;;2.55;75.64;98925.72;3094315;28;20058;-65
2021/12/03 02:47:52;;;;;;;67.75;28.63;;;;;;;2.57;75.72;98932.47;3092617;28;20051;-65
2021/12/03 02:49:24;;;;;;;64.90;29.05;;;;;;;2.61;75.64;98946.09;3090682;28;20116;-65
2021/12/03 02:50:56;;;;;;;72.93;29.50;;;;;;;2.62;75.56;98940.91;3094505;28;20050;-65
2021/12/03 02:52:30;;;;;;;69.80;27.90;;;;;;;2.64;75.55;98920.31;3092470;28;20054;-65
2021/12/03 02:54:01;;;;;;;58.97;28.35;;;;;;;2.60;75.40;98911.00;3090545;28;20109;-66
2021/12/03 02:55:33;;;;;;;59.17;26.98;;;;;;;2.59;75.44;98907.56;3094210;28;20043;-65
2021/12/03 02:57:06;;;;;;;65.40;27.25;;;;;;;2.55;75.40;98908.56;3088726;28;20058;-65
2021/12/03 02:58:38;;;;;;;68.85;28.33;;;;;;;2.55;75.72;98912.84;3092698;28;20513;-66
2021/12/03 03:00:13;;;;;;;65.43;27.00;;;;;;;2.58;75.54;98918.75;3091857;28;20482;-65
2021/12/03 03:01:45;;;;;;;60.90;27.77;;;;;;;2.59;75.42;98902.44;3089669;28;20420;-66
2021/12/03 03:03:17;;;;;;;70.63;28.52;;;;;;;2.62;75.61;98916.94;3094141;28;20512;-67
2021/12/03 03:04:50;;;;;;;68.65;28.27;;;;;;;2.63;75.38;98931.47;3092423;28;20440;-67
2021/12/03 03:06:22;;;;;;;68.25;28.60;;;;;;;2.65;75.38;98934.84;3090809;28;20054;-66
2021/12/03 03:07:56;;;;;;;65.47;27.15;;;;;;;2.58;75.25;98915.34;3092958;28;20053;-66
2021/12/03 03:09:30;;;;;;;67.80;27.83;;;;;;;2.68;75.09;98925.31;3093315;28;20082;-66
2021/12/03 03:11:06;;;;;;;62.22;27.02;;;;;;;2.72;75.32;98931.22;3093431;28;20086;-67
2021/12/03 03:12:37;;;;;;;75.35;27.55;;;;;;;2.72;75.25;98926.06;3091101;28;20061;-67
2021/12/03 03:14:09;;;;;;;61.58;26.55;;;;;;;2.72;75.18;98923.50;3091632;28;20050;-66
2021/12/03 03:15:41;;;;;;;55.25;26.25;;;;;;;2.74;75.01;98932.88;3092810;28;20050;-67
2021/12/03 03:17:14;;;;;;;62.88;27.98;;;;;;;2.77;74.92;98943.97;3093214;28;20054;-66
2021/12/03 03:18:46;;;;;;;67.47;27.58;;;;;;;2.76;74.99;98921.72;3091657;28;20137;-66
2021/12/03 03:20:19;;;;;;;60.03;26.98;;;;;;;2.72;75.02;98910.66;3093683;28;20058;-66
2021/12/03 03:21:52;;;;;;;65.23;26.33;;;;;;;2.69;75.24;98900.44;3089769;28;20086;-66
2021/12/03 03:23:25;;;;;;;66.90;28.02;;;;;;;2.67;75.25;98926.22;3094621;28;20396;-66
2021/12/03 03:25:00;;;;;;;60.22;27.02;;;;;;;2.66;75.36;98931.38;3091951;28;20455;-66
2021/12/03 03:26:32;;;;;;;59.58;26.63;;;;;;;2.67;75.19;98930.53;3090397;28;20057;-66
2021/12/03 03:28:04;;;;;;;61.05;26.63;;;;;;;2.68;75.38;98934.75;3094148;28;20042;-66
2021/12/03 03:29:36;;;;;;;59.08;28.52;;;;;;;2.69;75.48;98939.00;3093950;28;20524;-66
2021/12/03 03:31:08;;;;;;;60.22;27.17;;;;;;;2.70;75.33;98935.56;3095459;28;20500;-66
2021/12/03 03:32:41;;;;;;;61.60;27.05;;;;;;;2.73;75.22;98943.19;3095434;28;20117;-66
2021/12/03 03:34:13;;;;;;;58.33;26.35;;;;;;;2.74;75.30;98957.72;3094957;28;20057;-66
2021/12/03 03:35:45;;;;;;;64.15;28.08;;;;;;;2.75;75.14;98943.97;3096549;28;20054;-66
2021/12/03 03:37:18;;;;;;;63.80;28.00;;;;;;;2.76;75.17;98916.56;3094534;28;20054;-66
2021/12/03 03:38:51;;;;;;;62.08;27.00;;;;;;;2.76;75.12;98909.69;3092381;28;20169;-66
2021/12/03 03:40:23;;;;;;;60.67;27.35;;;;;;;2.75;75.20;98918.28;3095041;28;20050;-66
2021/12/03 03:41:55;;;;;;;67.25;26.67;;;;;;;2.77;75.10;98928.53;3093875;28;20049;-66
2021/12/03 03:43:27;;;;;;;60.42;27.23;;;;;;;2.77;75.14;98920.81;3094432;28;20046;-66
2021/12/03 03:44:59;;;;;;;59.58;28.38;;;;;;;2.79;75.16;98922.47;3094966;28;20113;-66
2021/12/03 03:46:31;;;;;;;61.47;28.27;;;;;;;2.80;75.01;98908.72;3094493;28;20105;-66
2021/12/03 03:48:04;;;;;;;62.00;28.27;;;;;;;2.79;75.13;98912.19;3095643;28;20046;-66
2021/12/03 03:49:36;;;;;;;62.10;28.67;;;;;;;2.78;75.29;98910.50;3094837;28;20062;-66
2021/12/03 03:51:09;;;;;;;64.10;27.75;;;;;;;2.80;75.18;98915.59;3087413;28;20047;-67
2021/12/03 03:52:41;;;;;;;64.18;28.13;;;;;;;2.74;75.08;98917.44;3093805;28;20054;-67
2021/12/03 03:54:15;;;;;;;60.28;28.05;;;;;;;2.79;75.04;98927.59;3093432;28;20508;-66
2021/12/03 03:55:46;;;;;;;57.22;27.45;;;;;;;2.79;74.98;98917.31;3095164;28;20050;-67
2021/12/03 03:57:18;;;;;;;66.38;28.85;;;;;;;2.75;75.04;98915.69;3095688;28;20058;-67
2021/12/03 03:58:50;;;;;;;67.82;27.98;;;;;;;2.71;75.21;98939.81;3090640;28;20050;-67
2021/12/03 04:00:27;;;;;;;62.55;29.00;;;;;;;2.71;75.11;98938.09;3096132;28;20152;-66
2021/12/03 04:01:59;;;;;;;66.55;28.33;;;;;;;2.70;75.09;98938.16;3095758;28;20054;-67
2021/12/03 04:03:31;;;;;;;66.95;27.95;;;;;;;2.72;75.08;98926.06;3095368;28;20108;-67
2021/12/03 04:05:03;;;;;;;66.20;28.55;;;;;;;2.71;75.16;98914.94;3090110;28;20069;-66
2021/12/03 04:06:35;;;;;;;61.25;27.73;;;;;;;2.69;75.00;98909.03;3091336;28;20513;-66
2021/12/03 04:08:08;;;;;;;67.55;28.45;;;;;;;2.68;75.21;98925.31;3094781;28;20444;-66
2021/12/03 04:09:41;;;;;;;61.27;28.13;;;;;;;2.68;75.14;98934.75;3093532;28;20444;-66
2021/12/03 04:11:13;;;;;;;;;;;;;;;2.50;75.44;98936.09;3096299;28;20379;-66
2021/12/03 04:12:45;;;;;;;61.17;26.70;;;;;;;2.58;75.57;98928.19;3095304;28;19993;-67
2021/12/03 04:14:17;;;;;;;71.53;29.75;;;;;;;2.62;75.46;98911.78;3094187;28;20542;-66
2021/12/03 04:15:50;;;;;;;66.22;28.10;;;;;;;2.64;75.39;98941.72;3091999;28;20062;-66
2021/12/03 04:17:22;;;;;;;64.75;28.90;;;;;;;2.62;75.32;98940.91;3095356;28;20050;-64
2021/12/03 04:18:54;;;;;;;72.40;29.45;;;;;;;2.66;75.54;98933.94;3092495;28;20051;-66
2021/12/03 04:20:26;;;;;;;74.50;32.53;;;;;;;2.68;75.54;98922.75;3095058;28;20054;-64
2021/12/03 04:21:56;;;;;;;73.78;32.35;;;;;;;2.63;75.38;98922.06;3094506;28;20046;-67
2021/12/03 04:23:28;;;;;;;70.85;30.80;;;;;;;2.68;75.44;98924.47;3090803;28;20061;-65
2021/12/03 04:25:04;;;;;;;67.78;30.65;;;;;;;2.75;75.47;98915.69;3094810;28;20539;-65
2021/12/03 04:26:35;;;;;;;66.88;28.48;;;;;;;2.75;75.48;98913.13;3093568;28;20462;-65
2021/12/03 04:28:07;;;;;;;66.35;29.17;;;;;;;2.73;75.38;98907.22;3091069;28;20440;-65
2021/12/03 04:29:39;;;;;;;64.60;30.13;;;;;;;2.71;75.36;98919.25;3095176;28;20560;-65
2021/12/03 04:31:11;;;;;;;67.07;29.73;;;;;;;2.73;75.57;98920.06;3091620;28;20484;-65
2021/12/03 04:32:43;;;;;;;70.88;30.15;;;;;;;2.73;75.42;98926.03;3095121;28;20050;-65
2021/12/03 04:34:16;;;;;;;70.97;29.38;;;;;;;2.76;75.43;98930.25;3094687;28;20076;-65
2021/12/03 04:35:48;;;;;;;110.10;46.22;;;;;;;2.77;75.31;98933.66;3093713;28;20054;-65
2021/12/03 04:37:22;;;;;;;89.88;37.67;;;;;;;2.78;75.19;98931.06;3094410;28;20153;-65
2021/12/03 04:38:53;;;;;;;74.30;32.15;;;;;;;2.81;75.26;98930.13;3094920;28;20053;-66
2021/12/03 04:40:29;;;;;;;74.88;31.25;;;;;;;2.82;75.33;98930.09;3089936;28;20054;-65
2021/12/03 04:42:01;;;;;;;87.97;35.17;;;;;;;2.81;75.31;98913.00;3095152;28;20663;-65
2021/12/03 04:43:33;;;;;;;77.45;32.50;;;;;;;2.81;75.21;98933.56;3093352;28;20047;-65
2021/12/03 04:45:06;;;;;;;69.63;30.42;;;;;;;2.82;75.21;98939.53;3095929;28;20121;-65
2021/12/03 04:46:37;;;;;;;77.43;35.03;;;;;;;2.80;75.11;98936.16;3092770;28;20057;-65
2021/12/03 04:48:10;;;;;;;67.20;29.67;;;;;;;2.75;75.06;98925.97;3095987;28;20053;-65
2021/12/03 04:49:42;;;;;;;65.13;29.83;;;;;;;2.75;75.05;98933.69;3095372;28;20061;-65
2021/12/03 04:51:14;;;;;;;69.40;30.73;;;;;;;2.72;75.06;98926.06;3091504;28;20110;-65
2021/12/03 04:52:47;;;;;;;66.53;31.02;;;;;;;2.74;75.04;98932.03;3095135;28;20728;-65
2021/12/03 04:54:18;;;;;;;65.43;29.45;;;;;;;2.73;75.05;98938.06;3094229;28;20054;-65
2021/12/03 04:55:52;;;;;;;67.25;29.17;;;;;;;2.57;74.82;98919.63;3090372;28;20060;-65
2021/12/03 04:57:24;;;;;;;60.67;28.33;;;;;;;2.75;74.91;98946.56;3095022;28;20081;-65
2021/12/03 04:58:56;;;;;;;74.15;34.67;;;;;;;2.74;74.89;98947.44;3091833;28;20065;-66
2021/12/03 05:00:30;;;;;;;72.05;32.85;;;;;;;2.74;74.69;98955.16;3095963;28;20066;-65
2021/12/03 05:02:02;;;;;;;64.88;30.67;;;;;;;2.70;74.72;98948.44;3092240;28;20046;-65
2021/12/03 05:03:34;;;;;;;54.60;25.95;;;;;;;2.70;74.74;98945.84;3095616;28;20054;-65
2021/12/03 05:05:07;;;;;;;63.25;28.73;;;;;;;2.68;74.53;98943.31;3094323;28;20120;-65
2021/12/03 05:06:55;;;;;;;59.28;26.52;;;;;;;2.69;74.40;98946.72;3090897;28;20042;-64
2021/12/03 05:08:30;;;;;;;54.78;24.02;;;;;;;2.67;74.55;98943.38;3095101;28;20053;-64
2021/12/03 05:10:02;;;;;;;54.80;27.40;;;;;;;2.66;74.42;98951.94;3093667;28;20050;-64
2021/12/03 05:11:35;;;;;;;52.97;24.98;;;;;;;2.58;74.45;98949.59;3091483;28;20515;-64
2021/12/03 05:13:09;;;;;;;46.22;20.65;;;;;;;2.65;74.45;98960.56;3092029;28;20054;-65
2021/12/03 05:14:41;;;;;;;48.78;20.88;;;;;;;2.62;74.34;98961.47;3094851;28;20050;-64
2021/12/03 05:16:13;;;;;;;45.40;22.08;;;;;;;2.63;74.25;98972.59;3094985;28;20046;-64
2021/12/03 05:17:45;;;;;;;46.08;20.40;;;;;;;2.62;74.22;98965.78;3093977;28;20058;-64
2021/12/03 05:19:17;;;;;;;44.50;20.48;;;;;;;2.62;74.25;98961.47;3093694;28;20488;-64
2021/12/03 05:20:51;;;;;;;42.42;19.38;;;;;;;2.62;74.11;98958.06;3094075;28;20046;-64
2021/12/03 05:22:23;;;;;;;45.00;18.75;;;;;;;2.58;74.28;98959.88;3093558;28;20051;-64
2021/12/03 05:23:55;;;;;;;41.20;18.35;;;;;;;2.56;74.24;98976.22;3091625;28;20046;-64
2021/12/03 05:25:28;;;;;;;50.13;20.60;;;;;;;2.56;74.26;98984.78;3094042;28;20046;-64
2021/12/03 05:27:01;;;;;;;43.85;19.30;;;;;;;2.56;74.24;98971.06;3092798;28;20058;-64
2021/12/03 05:28:33;;;;;;;39.28;17.92;;;;;;;2.54;74.32;98972.84;3088322;28;20120;-64
2021/12/03 05:30:07;;;;;;;38.90;17.52;;;;;;;2.54;74.25;98985.69;3093189;28;20053;-64
2021/12/03 05:31:39;;;;;;;;;;;;;;;2.37;74.42;99006.69;3094833;28;20134;-64
2021/12/03 05:33:10;;;;;;;36.55;17.40;;;;;;;2.43;74.62;99007.38;3094186;28;20311;-64
2021/12/03 05:34:43;;;;;;;43.10;18.95;;;;;;;2.48;74.24;98991.81;3092040;28;20042;-64
2021/12/03 05:36:15;;;;;;;45.45;19.52;;;;;;;2.47;74.35;98985.84;3094802;28;20058;-65
2021/12/03 05:37:46;;;;;;;43.92;19.48;;;;;;;2.44;74.23;98974.81;3094299;28;20057;-65
2021/12/03 05:39:18;;;;;;;54.17;22.08;;;;;;;2.41;74.44;98977.44;3091692;28;20057;-66
2021/12/03 05:40:50;;;;;;;51.45;22.60;;;;;;;2.42;74.41;98987.69;3088406;28;20570;-66
2021/12/03 05:42:23;;;;;;;52.03;21.88;;;;;;;2.43;74.34;98978.28;3092980;28;20053;-66
2021/12/03 05:43:55;;;;;;;47.53;22.23;;;;;;;2.40;74.39;98988.63;3094988;28;20104;-66
2021/12/03 05:45:30;;;;;;;53.17;21.33;;;;;;;2.40;74.23;98961.19;3094351;28;20050;-66
2021/12/03 05:47:02;;;;;;;44.20;21.10;;;;;;;2.32;74.54;98937.41;3091004;28;20050;-66
2021/12/03 05:48:34;;;;;;;49.38;21.77;;;;;;;2.31;74.67;98953.72;3094840;28;20112;-66
2021/12/03 05:50:11;;;;;;;49.40;22.13;;;;;;;2.24;74.57;98965.03;3092386;28;20112;-66
2021/12/03 05:51:43;;;;;;;45.28;21.25;;;;;;;2.28;74.60;98987.19;3092612;28;20202;-66
2021/12/03 05:53:15;;;;;;;49.72;21.90;;;;;;;2.31;74.73;98982.00;3092943;28;20087;-64
2021/12/03 05:54:47;;;;;;;47.33;21.30;;;;;;;2.34;74.62;98984.47;3092678;28;20432;-66
2021/12/03 05:56:19;;;;;;;47.17;22.23;;;;;;;2.35;74.86;98972.47;3095341;28;20516;-66
2021/12/03 05:57:52;;;;;;;46.25;21.98;;;;;;;2.40;74.71;98997.16;3092443;28;20058;-66
2021/12/03 05:59:24;;;;;;;58.22;24.48;;;;;;;2.42;74.76;99000.53;3094026;28;20109;-66
2021/12/03 06:00:56;;;;;;;52.20;21.23;;;;;;;2.46;74.62;98993.59;3093425;28;20121;-67
2021/12/03 06:02:28;;;;;;;53.67;22.20;;;;;;;2.49;74.81;98986.66;3093659;28;20433;-66
2021/12/03 06:04:00;;;;;;;50.58;22.50;;;;;;;2.54;74.61;99003.69;3090904;28;20051;-65
2021/12/03 06:05:33;;;;;;;42.88;20.63;;;;;;;2.57;74.49;99009.56;3092655;28;20520;-65
2021/12/03 06:07:05;;;;;;;42.47;20.42;;;;;;;2.41;74.52;98978.28;3093056;28;20054;-65
2021/12/03 06:08:37;;;;;;;48.80;21.00;;;;;;;2.63;74.47;99018.84;3094737;28;20046;-64
2021/12/03 06:10:10;;;;;;;42.63;20.05;;;;;;;2.63;74.25;98999.16;3091938;28;20128;-63
2021/12/03 06:11:42;;;;;;;45.75;20.05;;;;;;;2.65;74.14;99001.69;3090701;28;20052;-63
2021/12/03 06:13:15;;;;;;;45.17;19.40;;;;;;;2.68;74.23;99002.44;3093242;28;20129;-62
2021/12/03 06:14:48;;;;;;;34.63;16.27;;;;;;;2.71;74.19;99016.94;3092608;28;20042;-65
2021/12/03 06:16:20;;;;;;;40.03;18.35;;;;;;;2.70;74.07;99005.81;3093566;28;20050;-66
2021/12/03 06:17:52;;;;;;;35.55;17.50;;;;;;;2.81;74.08;98999.53;3093189;28;20051;-64
2021/12/03 06:19:24;;;;;;;78.25;36.00;;;;;;;2.84;73.81;99007.19;3090778;28;21829;-65
2021/12/03 06:20:56;;;;;;;44.55;20.90;;;;;;;2.91;73.91;99013.88;3094205;28;20435;-65
2021/12/03 06:22:28;;;;;;;38.08;15.68;;;;;;;2.94;73.78;99021.50;3093145;28;20480;-64
2021/12/03 06:24:00;;;;;;;40.75;17.63;;;;;;;3.01;73.50;99025.56;3087843;28;20065;-64
2021/12/03 06:25:31;;;;;;;30.73;15.38;;;;;;;3.05;73.49;99032.34;3094492;28;20561;-65
2021/12/03 06:27:05;;;;;;;32.53;16.58;;;;;;;3.07;73.22;99040.00;3092390;28;20047;-65
2021/12/03 06:28:39;;;;;;;31.73;15.27;;;;;;;3.12;73.15;99028.72;3095233;28;20061;-64
2021/12/03 06:30:14;;;;;;;29.98;13.73;;;;;;;3.14;73.12;99011.50;3092791;28;20535;-66
2021/12/03 06:31:46;;;;;;;31.50;14.23;;;;;;;3.16;73.12;99016.59;3092983;28;20061;-65
2021/12/03 06:33:19;;;;;;;58.45;28.02;;;;;;;3.21;72.99;99012.19;3093601;28;20499;-65
2021/12/03 06:34:52;;;;;;;34.45;16.63;;;;;;;3.24;72.82;98988.94;3092042;28;20066;-64
2021/12/03 06:36:24;;;;;;;44.38;20.25;;;;;;;3.26;72.64;99012.91;3093042;28;20603;-62
2021/12/03 06:37:55;;;;;;;41.15;17.23;;;;;;;3.33;72.74;99029.00;3092035;28;20588;-62
2021/12/03 06:39:27;;;;;;;28.48;14.65;;;;;;;3.39;72.63;99003.09;3091553;28;20054;-62
2021/12/03 06:41:00;;;;;;;35.50;16.83;;;;;;;3.42;72.59;99013.28;3093451;28;20701;-62
2021/12/03 06:42:32;;;;;;;36.42;16.73;;;;;;;3.47;72.49;99036.34;3092687;28;20054;-61
2021/12/03 06:44:08;;;;;;;32.00;15.30;;;;;;;3.53;72.33;99031.84;3093055;28;20133;-62
2021/12/03 06:45:41;;;;;;;33.95;15.60;;;;;;;3.56;72.26;99029.19;3093817;28;20136;-62
2021/12/03 06:47:12;;;;;;;34.45;16.23;;;;;;;3.63;72.21;99035.84;3092513;28;20113;-62
2021/12/03 06:48:44;;;;;;;38.28;16.85;;;;;;;3.70;71.98;99039.09;3086561;28;20447;-63
2021/12/03 06:50:18;;;;;;;36.83;17.42;;;;;;;3.72;72.07;99026.16;3080433;28;20058;-62
2021/12/03 06:51:51;;;;;;;31.80;16.13;;;;;;;3.79;71.89;99041.41;3080123;28;20085;-62
2021/12/03 06:53:26;;;;;;;34.50;16.00;;;;;;;3.82;71.80;99041.31;3077574;28;20109;-62
2021/12/03 06:55:02;;;;;;;32.38;15.35;;;;;;;3.90;71.54;99035.06;3077875;28;20051;-61
2021/12/03 06:56:44;;;;;;;31.38;15.73;;;;;;;3.94;71.41;99045.25;3078736;28;20125;-62
2021/12/03 06:58:17;;;;;;;32.78;15.85;;;;;;;3.99;71.22;99052.81;3078452;28;20074;-62
2021/12/03 06:59:51;;;;;;;36.88;15.20;;;;;;;4.04;70.95;99043.22;3078797;28;20050;-62
2021/12/03 07:01:23;;;;;;;35.20;16.05;;;;;;;4.07;70.96;99032.81;3079963;28;20054;-62
2021/12/03 07:02:55;;;;;;;39.75;15.02;;;;;;;4.14;70.83;99042.06;3079139;28;20108;-62
2021/12/03 07:04:27;;;;;;;33.70;15.25;;;;;;;4.19;70.63;99050.47;3082716;28;20046;-62
2021/12/03 07:05:59;;;;;;;35.28;14.75;;;;;;;4.26;70.45;99045.97;3079501;28;20050;-62
2021/12/03 07:07:31;;;;;;;36.30;15.45;;;;;;;4.30;70.35;99053.56;3082178;28;20165;-62
2021/12/03 07:09:04;;;;;;;36.67;15.00;;;;;;;4.38;70.33;99047.31;3079992;28;20516;-62
2021/12/03 07:10:37;;;;;;;33.22;14.65;;;;;;;4.42;70.04;99044.59;3080417;28;20085;-62
2021/12/03 07:12:13;;;;;;;29.65;15.45;;;;;;;4.46;69.89;99061.66;3083772;28;20058;-68